createdAt,value
2022-08-17T00:00:43.368Z,24.73
2022-08-17T00:02:57.142Z,24.57
2022-08-17T00:05:00.398Z,24.52
2022-08-17T00:07:05.076Z,24.50
2022-08-17T00:09:07.317Z,24.41
2022-08-17T00:11:17.821Z,24.29
2022-08-17T00:13:25.809Z,24.29
2022-08-17T00:15:28.189Z,24.33
2022-08-17T00:17:30.271Z,24.32
2022-08-17T00:19:33.078Z,24.31
2022-08-17T00:22:10.638Z,24.15
2022-08-17T00:24:01.172Z,24.04
2022-08-17T00:26:03.253Z,24.07
2022-08-17T00:28:06.307Z,24.01
2022-08-17T00:30:11.831Z,24.03
2022-08-17T00:33:12.527Z,23.99
2022-08-17T00:34:36.722Z,24.01
2022-08-17T00:36:41.564Z,23.97
2022-08-17T00:38:43.834Z,23.88
2022-08-17T00:40:51.844Z,23.89
2022-08-17T00:43:07.170Z,23.97
2022-08-17T00:45:14.874Z,23.91
2022-08-17T00:47:17.191Z,23.89
2022-08-17T00:49:19.962Z,23.81
2022-08-17T00:51:28.057Z,23.81
2022-08-17T00:53:33.815Z,23.85
2022-08-17T00:55:36.687Z,23.82
2022-08-17T00:57:43.612Z,23.73
2022-08-17T01:00:01.646Z,23.74
2022-08-17T01:02:06.906Z,23.73
2022-08-17T01:04:10.977Z,23.82
2022-08-17T01:06:13.455Z,23.88
2022-08-17T01:08:19.894Z,23.95
2022-08-17T01:10:58.349Z,23.93
2022-08-17T01:12:51.962Z,23.89
2022-08-17T01:14:53.923Z,23.95
2022-08-17T01:16:56.473Z,23.94
2022-08-17T01:19:11.049Z,23.98
2022-08-17T01:21:26.860Z,24.03
2022-08-17T01:23:29.196Z,24.08
2022-08-17T01:25:31.728Z,24.11
2022-08-17T01:27:34.295Z,24.11
2022-08-17T01:29:41.231Z,24.08
2022-08-17T01:31:47.443Z,24.02
2022-08-17T01:33:49.831Z,24.06
2022-08-17T01:35:52.031Z,24.09
2022-08-17T01:37:53.942Z,24.10
2022-08-17T01:40:33.128Z,24.08
2022-08-17T01:42:40.529Z,24.07
2022-08-17T01:44:42.569Z,24.09
2022-08-17T01:46:44.662Z,24.06
2022-08-17T01:48:47.702Z,24.03
2022-08-17T01:50:52.095Z,24.00
2022-08-17T01:52:58.658Z,23.90
2022-08-17T01:55:01.194Z,23.84
2022-08-17T01:57:04.297Z,23.76
2022-08-17T01:59:06.646Z,23.70
2022-08-17T02:01:10.257Z,23.69
2022-08-17T02:03:13.015Z,23.70
2022-08-17T02:05:15.329Z,23.69
2022-08-17T02:07:18.336Z,23.60
2022-08-17T02:09:30.183Z,23.57
2022-08-17T02:11:34.683Z,23.51
2022-08-17T02:13:38.103Z,23.51
2022-08-17T02:15:41.604Z,23.52
2022-08-17T02:17:43.611Z,23.53
2022-08-17T02:19:45.747Z,23.49
2022-08-17T02:21:50.594Z,23.42
2022-08-17T02:23:52.970Z,23.32
2022-08-17T02:25:58.110Z,23.35
2022-08-17T02:28:00.696Z,23.34
2022-08-17T02:30:05.312Z,23.23
2022-08-17T02:32:28.621Z,23.17
2022-08-17T02:34:31.468Z,23.18
2022-08-17T02:36:35.349Z,23.14
2022-08-17T02:38:38.546Z,23.12
2022-08-17T02:40:41.533Z,23.12
2022-08-17T02:42:45.417Z,23.09
2022-08-17T02:44:47.506Z,23.13
2022-08-17T02:46:49.429Z,23.16
2022-08-17T02:48:51.582Z,23.17
2022-08-17T02:50:53.700Z,23.21
2022-08-17T02:53:01.697Z,23.28
2022-08-17T02:55:07.612Z,23.30
2022-08-17T02:57:10.762Z,23.31
2022-08-17T02:59:12.804Z,23.18
2022-08-17T03:01:14.876Z,23.15
2022-08-17T03:03:21.018Z,23.10
2022-08-17T03:05:27.480Z,23.00
2022-08-17T03:07:31.217Z,23.04
2022-08-17T03:09:33.816Z,23.06
2022-08-17T03:11:36.028Z,23.07
2022-08-17T03:13:40.577Z,23.06
2022-08-17T03:15:46.179Z,23.02
2022-08-17T03:17:48.707Z,23.10
2022-08-17T03:19:51.132Z,23.13
2022-08-17T03:21:54.962Z,23.15
2022-08-17T03:23:57.839Z,23.18
2022-08-17T03:26:00.905Z,23.19
2022-08-17T03:28:04.315Z,23.20
2022-08-17T03:30:09.053Z,23.20
2022-08-17T03:32:15.011Z,23.21
2022-08-17T03:34:17.998Z,23.18
2022-08-17T03:36:20.176Z,23.18
2022-08-17T03:38:22.323Z,23.16
2022-08-17T03:40:55.482Z,23.17
2022-08-17T03:42:48.388Z,23.17
2022-08-17T03:44:54.282Z,23.19
2022-08-17T03:47:18.195Z,23.20
2022-08-17T03:49:39.074Z,23.17
2022-08-17T03:51:59.967Z,23.12
2022-08-17T03:54:20.630Z,23.08
2022-08-17T03:56:41.147Z,23.10
2022-08-17T03:58:43.307Z,23.11
2022-08-17T04:00:46.402Z,23.15
2022-08-17T04:02:48.628Z,23.15
2022-08-17T04:04:52.411Z,23.11
2022-08-17T04:06:54.729Z,23.15
2022-08-17T04:08:56.855Z,23.16
2022-08-17T04:11:01.241Z,23.17
2022-08-17T04:13:03.443Z,23.20
2022-08-17T04:15:06.708Z,23.22
2022-08-17T04:17:08.793Z,23.15
2022-08-17T04:19:13.213Z,23.07
2022-08-17T04:21:15.288Z,23.03
2022-08-17T04:23:18.659Z,22.99
2022-08-17T04:25:22.282Z,22.86
2022-08-17T04:27:24.486Z,22.92
2022-08-17T04:29:26.727Z,22.86
2022-08-17T04:31:48.875Z,22.77
2022-08-17T04:33:51.422Z,22.74
2022-08-17T04:35:58.239Z,22.76
2022-08-17T04:38:01.380Z,22.77
2022-08-17T04:40:22.974Z,22.82
2022-08-17T04:42:28.755Z,22.65
2022-08-17T04:44:37.771Z,22.74
2022-08-17T04:46:40.121Z,22.72
2022-08-17T04:48:46.230Z,22.76
2022-08-17T04:50:50.870Z,22.80
2022-08-17T04:52:52.977Z,22.86
2022-08-17T04:54:55.219Z,22.94
2022-08-17T04:56:57.307Z,23.06
2022-08-17T04:59:09.037Z,22.97
2022-08-17T05:01:11.720Z,23.08
2022-08-17T05:03:14.195Z,23.14
2022-08-17T05:05:29.391Z,23.09
2022-08-17T05:07:33.148Z,23.15
2022-08-17T05:09:35.204Z,23.18
2022-08-17T05:11:37.319Z,23.20
2022-08-17T05:13:39.208Z,23.19
2022-08-17T05:15:44.820Z,23.36
2022-08-17T05:17:47.314Z,23.50
2022-08-17T05:19:52.019Z,23.60
2022-08-17T05:21:54.255Z,23.64
2022-08-17T05:23:58.593Z,23.77
2022-08-17T05:26:02.015Z,23.73
2022-08-17T05:28:04.949Z,23.85
2022-08-17T05:30:11.495Z,23.95
2022-08-17T05:32:39.054Z,23.82
2022-08-17T05:34:37.098Z,24.03
2022-08-17T05:36:43.386Z,23.94
2022-08-17T05:38:46.747Z,24.06
2022-08-17T05:40:49.477Z,24.27
2022-08-17T05:42:53.167Z,24.38
2022-08-17T05:44:58.974Z,24.51
2022-08-17T05:47:02.202Z,24.64
2022-08-17T05:49:09.865Z,24.80
2022-08-17T05:51:12.380Z,24.91
2022-08-17T05:53:38.104Z,25.06
2022-08-17T05:55:50.859Z,25.20
2022-08-17T05:58:10.809Z,25.27
2022-08-17T06:00:15.539Z,25.37
2022-08-17T06:02:48.120Z,25.51
2022-08-17T06:05:14.818Z,25.42
2022-08-17T06:07:46.205Z,25.57
2022-08-17T06:10:13.769Z,25.66
2022-08-17T06:12:27.967Z,25.64
2022-08-17T06:14:38.610Z,25.58
2022-08-17T06:16:45.131Z,25.70
2022-08-17T06:18:57.751Z,25.84
2022-08-17T06:21:07.155Z,25.92
2022-08-17T06:23:14.608Z,26.09
2022-08-17T06:25:39.733Z,26.27
2022-08-17T06:28:03.793Z,26.44
2022-08-17T06:30:12.799Z,26.54
2022-08-17T06:32:15.287Z,26.63
2022-08-17T06:34:17.928Z,26.74
2022-08-17T06:36:44.917Z,26.76
2022-08-17T06:39:02.297Z,26.83
2022-08-17T06:41:43.665Z,26.88
2022-08-17T06:43:48.020Z,27.10
2022-08-17T06:45:59.090Z,27.20
2022-08-17T06:48:11.745Z,27.32
2022-08-17T06:50:20.756Z,27.45
2022-08-17T06:52:56.058Z,27.47
2022-08-17T06:55:05.546Z,27.33
2022-08-17T06:57:23.211Z,27.32
2022-08-17T06:59:57.062Z,27.30
2022-08-17T07:02:06.161Z,27.41
2022-08-17T07:04:12.348Z,27.44
2022-08-17T07:06:21.185Z,27.44
2022-08-17T07:08:50.050Z,27.59
2022-08-17T07:10:58.015Z,27.70
2022-08-17T07:13:14.299Z,27.85
2022-08-17T07:15:21.987Z,28.05
2022-08-17T07:17:46.684Z,28.14
2022-08-17T07:19:51.392Z,28.25
2022-08-17T07:22:23.486Z,28.34
2022-08-17T07:24:30.071Z,28.42
2022-08-17T07:26:33.356Z,28.50
2022-08-17T07:28:37.410Z,28.64
2022-08-17T07:30:47.621Z,28.76
2022-08-17T07:32:57.992Z,28.84
2022-08-17T07:35:31.078Z,28.97
2022-08-17T07:38:24.957Z,29.11
2022-08-17T07:40:35.773Z,29.23
2022-08-17T07:42:40.727Z,29.39
2022-08-17T07:44:56.672Z,29.46
2022-08-17T07:47:17.997Z,29.61
2022-08-17T07:49:37.255Z,29.72
2022-08-17T07:51:45.938Z,29.90
2022-08-17T07:53:48.841Z,30.00
2022-08-17T07:55:52.921Z,30.09
2022-08-17T07:57:57.658Z,30.17
2022-08-17T08:00:05.482Z,30.22
2022-08-17T08:02:40.557Z,30.23
2022-08-17T08:05:01.110Z,30.29
2022-08-17T08:07:24.574Z,30.41
2022-08-17T08:09:30.077Z,30.46
2022-08-17T08:11:42.450Z,30.57
2022-08-17T08:13:46.511Z,30.60
2022-08-17T08:15:54.762Z,30.70
2022-08-17T08:18:00.554Z,30.75
2022-08-17T08:20:50.852Z,30.85
2022-08-17T08:22:43.606Z,31.01
2022-08-17T08:25:39.433Z,31.02
2022-08-17T08:27:50.351Z,31.12
2022-08-17T08:30:12.524Z,31.15
2022-08-17T08:32:23.465Z,31.17
2022-08-17T08:34:47.360Z,31.21
2022-08-17T08:37:14.955Z,31.09
2022-08-17T08:39:35.482Z,31.12
2022-08-17T08:41:48.579Z,31.19
2022-08-17T08:44:09.117Z,31.32
2022-08-17T08:46:43.638Z,31.46
2022-08-17T08:49:12.032Z,31.59
2022-08-17T08:51:59.327Z,31.66
2022-08-17T08:54:26.699Z,31.70
2022-08-17T08:57:23.121Z,31.70
2022-08-17T08:59:42.127Z,31.84
2022-08-17T09:02:21.513Z,31.94
2022-08-17T09:05:12.912Z,32.02
2022-08-17T09:07:25.423Z,32.07
2022-08-17T09:09:43.262Z,32.18
2022-08-17T09:12:08.547Z,32.21
2022-08-17T09:14:31.582Z,32.30
2022-08-17T09:17:02.066Z,32.37
2022-08-17T09:19:30.735Z,32.39
2022-08-17T09:21:58.628Z,32.46
2022-08-17T09:24:21.508Z,32.58
2022-08-17T09:26:30.640Z,32.68
2022-08-17T09:28:47.637Z,32.70
2022-08-17T09:31:02.556Z,32.78
2022-08-17T09:33:10.269Z,32.90
2022-08-17T09:35:15.517Z,33.02
2022-08-17T09:37:33.268Z,33.07
2022-08-17T09:40:19.432Z,33.08
2022-08-17T09:42:34.345Z,33.22
2022-08-17T09:44:51.645Z,33.25
2022-08-17T09:47:05.900Z,33.28
2022-08-17T09:49:32.133Z,33.27
2022-08-17T09:51:58.460Z,33.30
2022-08-17T09:54:15.100Z,33.39
2022-08-17T09:56:48.238Z,33.49
2022-08-17T09:59:21.599Z,33.53
2022-08-17T10:01:35.759Z,33.63
2022-08-17T10:04:02.988Z,33.63
2022-08-17T10:06:24.897Z,33.64
2022-08-17T10:09:10.518Z,33.77
2022-08-17T10:12:09.272Z,33.81
2022-08-17T10:14:37.847Z,33.87
2022-08-17T10:16:56.388Z,33.92
2022-08-17T10:19:14.062Z,33.90
2022-08-17T10:21:37.985Z,34.03
2022-08-17T10:24:00.232Z,34.05
2022-08-17T10:26:25.074Z,34.07
2022-08-17T10:28:32.797Z,34.16
2022-08-17T10:30:44.904Z,34.19
2022-08-17T10:32:56.147Z,34.20
2022-08-17T10:35:35.265Z,34.16
2022-08-17T10:37:54.098Z,34.24
2022-08-17T10:40:14.882Z,34.31
2022-08-17T10:42:35.773Z,34.26
2022-08-17T10:45:00.674Z,34.36
2022-08-17T10:47:16.098Z,34.42
2022-08-17T10:49:18.227Z,34.56
2022-08-17T10:51:39.464Z,34.60
2022-08-17T10:53:41.626Z,34.67
2022-08-17T10:56:12.654Z,34.67
2022-08-17T10:58:22.226Z,34.69
2022-08-17T11:00:27.905Z,34.71
2022-08-17T11:02:40.886Z,34.69
2022-08-17T11:04:50.204Z,34.71
2022-08-17T11:07:16.887Z,34.78
2022-08-17T11:09:49.127Z,34.82
2022-08-17T11:12:09.302Z,34.82
2022-08-17T11:14:36.290Z,34.82
2022-08-17T11:16:40.975Z,34.91
2022-08-17T11:19:21.116Z,34.92
2022-08-17T11:21:55.313Z,34.99
2022-08-17T11:24:37.206Z,35.10
2022-08-17T11:26:46.972Z,35.19
2022-08-17T11:28:54.632Z,35.23
2022-08-17T11:31:01.545Z,35.23
2022-08-17T11:33:32.777Z,35.09
2022-08-17T11:35:45.183Z,35.12
2022-08-17T11:38:16.072Z,35.11
2022-08-17T11:40:24.912Z,35.15
2022-08-17T11:42:34.729Z,35.16
2022-08-17T11:44:51.696Z,35.19
2022-08-17T11:47:37.319Z,35.16
2022-08-17T11:50:20.891Z,35.27
2022-08-17T11:52:49.141Z,35.28
2022-08-17T11:54:51.489Z,35.29
2022-08-17T11:56:53.906Z,35.21
2022-08-17T11:58:56.412Z,35.18
2022-08-17T12:01:10.740Z,35.20
2022-08-17T12:03:33.188Z,35.24
2022-08-17T12:05:36.828Z,35.27
2022-08-17T12:07:42.719Z,35.30
2022-08-17T12:09:50.153Z,35.30
2022-08-17T12:12:14.200Z,35.24
2022-08-17T12:14:35.682Z,35.22
2022-08-17T12:16:45.287Z,35.19
2022-08-17T12:18:59.895Z,35.13
2022-08-17T12:21:18.599Z,35.12
2022-08-17T12:23:32.272Z,35.18
2022-08-17T12:25:39.343Z,35.23
2022-08-17T12:28:06.086Z,35.21
2022-08-17T12:30:14.384Z,35.22
2022-08-17T12:32:20.243Z,35.21
2022-08-17T12:34:29.431Z,35.20
2022-08-17T12:36:34.038Z,35.22
2022-08-17T12:38:38.420Z,35.15
2022-08-17T12:40:55.504Z,35.09
2022-08-17T12:43:21.212Z,35.11
2022-08-17T12:45:27.503Z,35.25
2022-08-17T12:47:30.614Z,35.32
2022-08-17T12:49:39.682Z,35.37
2022-08-17T12:51:48.179Z,35.32
2022-08-17T12:53:55.072Z,35.27
2022-08-17T12:56:03.448Z,35.30
2022-08-17T12:58:14.344Z,35.23
2022-08-17T13:00:31.399Z,35.17
2022-08-17T13:02:43.547Z,35.18
2022-08-17T13:04:46.567Z,35.27
2022-08-17T13:06:52.011Z,35.34
2022-08-17T13:09:35.829Z,35.28
2022-08-17T13:11:52.558Z,35.34
2022-08-17T13:13:56.449Z,35.35
2022-08-17T13:16:02.089Z,35.40
2022-08-17T13:18:28.647Z,35.40
2022-08-17T13:20:31.369Z,35.45
2022-08-17T13:22:33.762Z,35.39
2022-08-17T13:24:38.160Z,35.45
2022-08-17T13:26:45.524Z,35.44
2022-08-17T13:28:50.424Z,35.39
2022-08-17T13:30:52.690Z,35.37
2022-08-17T13:32:57.351Z,35.44
2022-08-17T13:35:15.274Z,35.48
2022-08-17T13:37:29.983Z,35.47
2022-08-17T13:39:41.815Z,35.44
2022-08-17T13:41:44.017Z,35.47
2022-08-17T13:43:49.635Z,35.43
2022-08-17T13:45:52.604Z,35.41
2022-08-17T13:48:21.396Z,35.34
2022-08-17T13:50:23.511Z,35.44
2022-08-17T13:52:41.461Z,35.43
2022-08-17T13:54:51.940Z,35.39
2022-08-17T13:57:13.009Z,35.39
2022-08-17T13:59:53.078Z,35.36
2022-08-17T14:01:55.641Z,35.44
2022-08-17T14:03:59.955Z,35.43
2022-08-17T14:06:06.076Z,35.36
2022-08-17T14:08:11.749Z,35.39
2022-08-17T14:10:17.957Z,35.38
2022-08-17T14:12:25.890Z,35.33
2022-08-17T14:14:29.459Z,35.33
2022-08-17T14:16:33.314Z,35.37
2022-08-17T14:18:56.285Z,35.36
2022-08-17T14:21:00.023Z,35.40
2022-08-17T14:23:02.222Z,35.37
2022-08-17T14:25:06.210Z,35.37
2022-08-17T14:27:12.925Z,35.33
2022-08-17T14:29:15.785Z,35.32
2022-08-17T14:31:20.796Z,35.29
2022-08-17T14:33:24.926Z,35.29
2022-08-17T14:35:28.348Z,35.27
2022-08-17T14:37:31.713Z,35.28
2022-08-17T14:39:34.231Z,35.33
2022-08-17T14:41:37.798Z,35.28
2022-08-17T14:43:40.057Z,35.26
2022-08-17T14:45:43.104Z,35.28
2022-08-17T14:47:45.596Z,35.27
2022-08-17T14:49:49.013Z,35.28
2022-08-17T14:51:51.441Z,35.29
2022-08-17T14:53:53.798Z,35.25
2022-08-17T14:55:59.419Z,35.22
2022-08-17T14:58:01.665Z,35.20
2022-08-17T15:00:05.250Z,35.23
2022-08-17T15:02:08.410Z,35.19
2022-08-17T15:04:15.146Z,35.20
2022-08-17T15:06:20.377Z,35.18
2022-08-17T15:08:22.571Z,35.14
2022-08-17T15:10:26.067Z,35.12
2022-08-17T15:12:32.840Z,35.04
2022-08-17T15:14:36.720Z,34.95
2022-08-17T15:16:39.014Z,34.90
2022-08-17T15:18:41.856Z,34.93
2022-08-17T15:20:44.670Z,34.96
2022-08-17T15:22:55.427Z,34.98
2022-08-17T15:25:04.113Z,34.96
2022-08-17T15:27:06.573Z,34.89
2022-08-17T15:29:10.329Z,34.91
2022-08-17T15:31:12.486Z,34.95
2022-08-17T15:33:17.143Z,34.90
2022-08-17T15:35:22.043Z,34.90
2022-08-17T15:37:30.908Z,34.89
2022-08-17T15:39:33.246Z,34.88
2022-08-17T15:41:35.792Z,34.78
2022-08-17T15:43:38.169Z,34.81
2022-08-17T15:45:43.717Z,34.81
2022-08-17T15:47:46.909Z,34.83
2022-08-17T15:49:49.371Z,34.84
2022-08-17T15:51:51.645Z,34.79
2022-08-17T15:54:22.113Z,34.72
2022-08-17T15:56:31.851Z,34.72
2022-08-17T15:58:35.359Z,34.73
2022-08-17T16:00:53.324Z,34.67
2022-08-17T16:03:46.346Z,34.67
2022-08-17T16:05:25.307Z,34.69
2022-08-17T16:07:27.997Z,34.68
2022-08-17T16:09:30.166Z,34.59
2022-08-17T16:11:32.333Z,34.61
2022-08-17T16:13:34.707Z,34.63
2022-08-17T16:15:38.285Z,34.65
2022-08-17T16:17:41.669Z,34.66
2022-08-17T16:19:44.308Z,34.63
2022-08-17T16:21:47.606Z,34.60
2022-08-17T16:23:53.196Z,34.55
2022-08-17T16:25:55.453Z,34.48
2022-08-17T16:27:57.966Z,34.51
2022-08-17T16:30:01.206Z,34.50
2022-08-17T16:32:15.461Z,34.43
2022-08-17T16:34:19.132Z,34.42
2022-08-17T16:36:23.485Z,34.41
2022-08-17T16:38:25.941Z,34.41
2022-08-17T16:40:31.279Z,34.39
2022-08-17T16:42:39.873Z,34.38
2022-08-17T16:44:42.209Z,34.34
2022-08-17T16:46:46.241Z,34.34
2022-08-17T16:48:48.563Z,34.30
2022-08-17T16:51:03.470Z,34.29
2022-08-17T16:53:10.875Z,34.24
2022-08-17T16:55:13.538Z,34.20
2022-08-17T16:57:17.663Z,34.17
2022-08-17T16:59:31.136Z,34.14
2022-08-17T17:01:41.968Z,34.12
2022-08-17T17:03:47.181Z,34.05
2022-08-17T17:06:24.546Z,33.97
2022-08-17T17:08:34.995Z,33.95
2022-08-17T17:10:46.305Z,33.89
2022-08-17T17:13:01.466Z,33.88
2022-08-17T17:15:07.322Z,33.83
2022-08-17T17:17:31.082Z,33.78
2022-08-17T17:19:41.307Z,33.72
2022-08-17T17:22:03.978Z,33.63
2022-08-17T17:24:14.359Z,33.63
2022-08-17T17:26:45.700Z,33.54
2022-08-17T17:29:00.330Z,33.51
2022-08-17T17:31:14.927Z,33.47
2022-08-17T17:33:22.631Z,33.49
2022-08-17T17:35:56.372Z,33.41
2022-08-17T17:38:04.056Z,33.40
2022-08-17T17:40:13.917Z,33.37
2022-08-17T17:42:21.407Z,33.33
2022-08-17T17:44:34.813Z,33.24
2022-08-17T17:46:42.619Z,33.23
2022-08-17T17:48:46.829Z,33.19
2022-08-17T17:52:06.624Z,33.06
2022-08-17T17:54:07.555Z,32.96
2022-08-17T17:56:43.321Z,32.98
2022-08-17T17:59:05.628Z,32.85
2022-08-17T18:01:25.275Z,32.81
2022-08-17T18:03:33.597Z,32.79
2022-08-17T18:05:54.097Z,32.70
2022-08-17T18:08:14.115Z,32.67
2022-08-17T18:10:30.181Z,32.61
2022-08-17T18:12:46.119Z,32.51
2022-08-17T18:14:58.307Z,32.46
2022-08-17T18:17:02.362Z,32.45
2022-08-17T18:19:06.170Z,32.40
2022-08-17T18:21:19.024Z,32.32
2022-08-17T18:23:27.705Z,32.28
2022-08-17T18:25:39.540Z,32.05
2022-08-17T18:27:51.228Z,32.03
2022-08-17T18:29:57.753Z,32.04
2022-08-17T18:32:31.482Z,31.97
2022-08-17T18:34:47.394Z,32.01
2022-08-17T18:36:50.237Z,31.96
2022-08-17T18:39:11.805Z,31.84
2022-08-17T18:41:26.300Z,31.84
2022-08-17T18:43:52.835Z,31.85
2022-08-17T18:45:58.061Z,31.84
2022-08-17T18:48:01.206Z,31.80
2022-08-17T18:50:36.441Z,31.71
2022-08-17T18:52:39.057Z,31.72
2022-08-17T18:54:54.413Z,31.67
2022-08-17T18:56:58.979Z,31.62
2022-08-17T18:59:04.358Z,31.63
2022-08-17T19:01:19.552Z,31.44
2022-08-17T19:03:26.682Z,31.42
2022-08-17T19:05:41.231Z,31.38
2022-08-17T19:07:47.131Z,31.39
2022-08-17T19:10:01.539Z,31.36
2022-08-17T19:12:07.669Z,31.36
2022-08-17T19:14:14.037Z,31.36
2022-08-17T19:16:18.976Z,31.34
2022-08-17T19:18:36.001Z,31.30
2022-08-17T19:20:46.029Z,31.29
2022-08-17T19:22:53.736Z,31.27
2022-08-17T19:25:09.267Z,31.25
2022-08-17T19:27:21.238Z,31.21
2022-08-17T19:29:30.246Z,31.15
2022-08-17T19:31:32.112Z,31.12
2022-08-17T19:33:34.970Z,31.04
2022-08-17T19:36:01.706Z,31.05
2022-08-17T19:38:13.387Z,31.08
2022-08-17T19:43:38.185Z,31.02
2022-08-17T19:45:59.515Z,30.93
2022-08-17T19:48:07.364Z,30.78
2022-08-17T19:50:22.326Z,30.66
2022-08-17T19:52:57.813Z,30.57
2022-08-17T19:54:59.925Z,30.68
2022-08-17T19:57:20.547Z,30.64
2022-08-17T19:59:35.990Z,30.66
2022-08-17T20:01:45.314Z,30.52
2022-08-17T20:04:14.432Z,30.33
2022-08-17T20:06:16.882Z,30.23
2022-08-17T20:08:26.485Z,30.17
2022-08-17T20:10:48.061Z,30.09
2022-08-17T20:13:03.489Z,30.09
2022-08-17T20:15:05.673Z,30.17
2022-08-17T20:17:09.739Z,30.22
2022-08-17T20:19:28.053Z,30.07
2022-08-17T20:21:56.527Z,30.03
2022-08-17T20:24:04.283Z,29.96
2022-08-17T20:26:28.813Z,29.85
2022-08-17T20:28:38.661Z,29.86
2022-08-17T20:30:43.184Z,29.93
2022-08-17T20:33:03.545Z,29.93
2022-08-17T20:35:31.840Z,29.93
2022-08-17T20:37:36.127Z,29.93
2022-08-17T20:40:03.993Z,29.93
2022-08-17T20:42:15.354Z,29.82
2022-08-17T20:44:32.790Z,29.81
2022-08-17T20:46:38.331Z,29.80
2022-08-17T20:48:47.497Z,29.69
2022-08-17T20:50:57.826Z,29.50
2022-08-17T20:53:02.793Z,29.41
2022-08-17T20:55:05.437Z,29.43
2022-08-17T20:57:13.811Z,29.44
2022-08-17T20:59:26.042Z,29.20
2022-08-17T21:01:39.842Z,29.23
2022-08-17T21:03:51.304Z,29.34
2022-08-17T21:06:00.328Z,29.30
2022-08-17T21:08:22.235Z,29.18
2022-08-17T21:10:24.224Z,29.25
2022-08-17T21:12:42.653Z,29.32
2022-08-17T21:14:59.815Z,29.24
2022-08-17T21:17:31.537Z,29.24
2022-08-17T21:20:08.038Z,29.33
2022-08-17T21:22:29.253Z,29.27
2022-08-17T21:24:39.068Z,29.32
2022-08-17T21:27:12.380Z,29.29
2022-08-17T21:29:31.990Z,29.39
2022-08-17T21:31:44.183Z,29.47
2022-08-17T21:34:15.485Z,29.48
2022-08-17T21:36:26.015Z,29.57
2022-08-17T21:38:37.515Z,29.57
2022-08-17T21:40:48.323Z,29.59
2022-08-17T21:42:55.748Z,29.62
2022-08-17T21:45:10.217Z,29.56
2022-08-17T21:47:26.089Z,29.56
2022-08-17T21:49:29.332Z,29.53
2022-08-17T21:51:49.149Z,29.51
2022-08-17T21:53:54.370Z,29.46
2022-08-17T21:55:56.696Z,29.44
2022-08-17T21:58:14.895Z,29.43
2022-08-17T22:00:25.333Z,29.41
2022-08-17T22:02:34.424Z,29.43
2022-08-17T22:04:39.704Z,29.32
2022-08-17T22:06:57.079Z,29.21
2022-08-17T22:09:01.444Z,29.05
2022-08-17T22:11:03.599Z,29.01
2022-08-17T22:13:16.960Z,29.03
2022-08-17T22:15:20.769Z,29.09
2022-08-17T22:17:25.434Z,29.08
2022-08-17T22:19:28.252Z,29.12
2022-08-17T22:21:30.358Z,29.17
2022-08-17T22:24:05.740Z,29.16
2022-08-17T22:26:12.717Z,29.15
2022-08-17T22:28:39.836Z,29.07
2022-08-17T22:30:58.440Z,29.13
2022-08-17T22:33:40.680Z,29.04
2022-08-17T22:35:45.663Z,29.07
2022-08-17T22:37:48.148Z,29.07
2022-08-17T22:40:00.098Z,29.00
2022-08-17T22:42:02.625Z,29.01
2022-08-17T22:44:11.026Z,29.00
2022-08-17T22:46:15.191Z,28.98
2022-08-17T22:48:22.460Z,28.95
2022-08-17T22:50:32.988Z,28.92
2022-08-17T22:53:01.398Z,28.88
2022-08-17T22:55:29.663Z,28.83
2022-08-17T22:57:51.320Z,28.78
2022-08-17T22:59:55.735Z,28.68
2022-08-17T23:02:12.669Z,28.55
2022-08-17T23:04:33.434Z,28.42
2022-08-17T23:06:38.486Z,28.44
2022-08-17T23:08:55.048Z,28.42
2022-08-17T23:11:00.589Z,28.42
2022-08-17T23:13:03.002Z,28.39
2022-08-17T23:15:11.223Z,28.31
2022-08-17T23:17:13.900Z,27.93
2022-08-17T23:19:20.014Z,27.71
2022-08-17T23:21:26.484Z,27.67
2022-08-17T23:23:29.945Z,27.61
2022-08-17T23:25:33.862Z,27.68
2022-08-17T23:27:37.163Z,27.74
2022-08-17T23:29:41.467Z,27.65
2022-08-17T23:31:43.883Z,27.57
2022-08-17T23:33:47.865Z,27.52
2022-08-17T23:35:50.517Z,27.49
2022-08-17T23:37:52.979Z,27.52
2022-08-17T23:39:55.381Z,27.56
2022-08-17T23:41:59.424Z,27.61
2022-08-17T23:44:03.352Z,27.69
2022-08-17T23:46:07.391Z,27.75
2022-08-17T23:48:09.728Z,27.75
2022-08-17T23:50:11.864Z,27.76
2022-08-17T23:52:17.350Z,27.76
2022-08-17T23:54:41.669Z,27.79
2022-08-17T23:56:49.726Z,27.79
2022-08-17T23:58:54.906Z,27.81
